createdAt,value
2019-01-19T00:02:23.681Z,-6.39
2019-01-19T00:06:23.334Z,-6.48
2019-01-19T00:09:42.015Z,-6.54
2019-01-19T00:13:36.446Z,-6.55
2019-01-19T00:17:45.139Z,-6.58
2019-01-19T00:21:42.092Z,-6.69
2019-01-19T00:25:23.720Z,-6.54
2019-01-19T00:28:45.210Z,-6.68
2019-01-19T00:32:25.101Z,-6.64
2019-01-19T00:36:11.499Z,-6.64
2019-01-19T00:40:28.770Z,-6.70
2019-01-19T00:43:59.470Z,-6.74
2019-01-19T00:47:39.008Z,-6.74
2019-01-19T00:51:51.308Z,-6.72
2019-01-19T00:56:15.470Z,-6.77
2019-01-19T00:59:31.509Z,-6.94
2019-01-19T01:03:40.582Z,-6.89
2019-01-19T01:07:40.683Z,-6.99
2019-01-19T01:11:32.005Z,-6.87
2019-01-19T01:15:53.411Z,-6.87
2019-01-19T01:19:59.071Z,-6.39
2019-01-19T01:23:58.840Z,-6.69
2019-01-19T01:28:13.028Z,-6.91
2019-01-19T01:32:13.989Z,-6.99
2019-01-19T01:36:29.275Z,-6.48
2019-01-19T01:40:19.873Z,-6.56
2019-01-19T01:44:00.431Z,-6.85
2019-01-19T01:47:55.996Z,-6.98
2019-01-19T01:51:37.614Z,-6.96
2019-01-19T01:55:16.745Z,-7.08
2019-01-19T01:59:03.518Z,-6.99
2019-01-19T02:03:15.941Z,-6.92
2019-01-19T02:06:56.672Z,-7.08
2019-01-19T02:10:34.080Z,-7.14
2019-01-19T02:14:03.276Z,-7.01
2019-01-19T02:18:13.274Z,-6.96
2019-01-19T02:22:01.860Z,-7.28
2019-01-19T02:25:58.714Z,-7.11
2019-01-19T02:30:08.433Z,-7.01
2019-01-19T02:33:57.646Z,-6.85
2019-01-19T02:38:04.802Z,-7.46
2019-01-19T02:42:24.288Z,-7.32
2019-01-19T02:46:30.191Z,-7.64
2019-01-19T02:50:25.805Z,-7.33
2019-01-19T02:54:31.152Z,-7.11
2019-01-19T02:58:09.396Z,-7.35
2019-01-19T03:02:02.820Z,-7.30
2019-01-19T03:05:56.142Z,-7.42
2019-01-19T03:10:02.076Z,-7.43
2019-01-19T03:14:12.098Z,-7.38
2019-01-19T03:18:09.166Z,-7.60
2019-01-19T03:22:11.901Z,-7.58
2019-01-19T03:26:05.243Z,-7.44
2019-01-19T03:29:55.070Z,-7.38
2019-01-19T03:33:42.075Z,-7.47
2019-01-19T03:37:39.003Z,-7.26
2019-01-19T03:41:53.426Z,-7.35
2019-01-19T03:45:42.691Z,-7.51
2019-01-19T03:50:01.517Z,-7.67
2019-01-19T03:53:56.144Z,-7.65
2019-01-19T03:58:01.907Z,-7.67
2019-01-19T04:02:09.739Z,-7.67
2019-01-19T04:06:14.635Z,-7.64
2019-01-19T04:10:14.101Z,-7.71
2019-01-19T04:14:30.852Z,-7.76
2019-01-19T04:18:20.409Z,-7.72
2019-01-19T04:22:05.419Z,-7.65
2019-01-19T04:26:08.215Z,-7.66
2019-01-19T04:29:15.667Z,-7.65
2019-01-19T04:32:22.559Z,-7.72
2019-01-19T04:35:29.482Z,-7.64
2019-01-19T04:38:38.039Z,-7.72
2019-01-19T04:41:45.047Z,-7.71
2019-01-19T04:44:51.930Z,-7.63
2019-01-19T04:47:58.861Z,-7.66
2019-01-19T04:51:06.035Z,-7.72
2019-01-19T04:54:13.205Z,-7.69
2019-01-19T04:57:20.102Z,-7.79
2019-01-19T05:00:27.034Z,-7.81
2019-01-19T05:03:33.919Z,-7.74
2019-01-19T05:06:40.858Z,-7.52
2019-01-19T05:09:47.866Z,-7.61
2019-01-19T05:12:54.812Z,-7.88
2019-01-19T05:16:01.779Z,-7.85
2019-01-19T05:19:08.693Z,-7.61
2019-01-19T05:22:15.632Z,-7.54
2019-01-19T05:25:22.559Z,-7.69
2019-01-19T05:28:29.444Z,-7.82
2019-01-19T05:31:36.470Z,-7.97
2019-01-19T05:34:43.826Z,-7.93
2019-01-19T05:37:50.765Z,-7.88
2019-01-19T05:40:57.657Z,-7.79
2019-01-19T05:44:04.586Z,-7.82
2019-01-19T05:47:11.654Z,-7.62
2019-01-19T05:50:23.576Z,-7.41
2019-01-19T05:53:30.798Z,-7.52
2019-01-19T05:56:37.730Z,-7.39
2019-01-19T05:59:44.613Z,-7.62
2019-01-19T06:02:51.553Z,-7.55
2019-01-19T06:05:58.811Z,-7.50
2019-01-19T06:09:08.947Z,-7.48
2019-01-19T06:12:15.964Z,-7.73
2019-01-19T06:15:23.394Z,-7.85
2019-01-19T06:18:32.265Z,-7.67
2019-01-19T06:21:47.896Z,-7.89
2019-01-19T06:24:54.797Z,-8.06
2019-01-19T06:28:01.725Z,-8.03
2019-01-19T06:31:08.736Z,-8.03
2019-01-19T06:34:15.781Z,-7.98
2019-01-19T06:37:22.823Z,-8.06
2019-01-19T06:40:29.760Z,-8.02
2019-01-19T06:43:36.641Z,-7.98
2019-01-19T06:46:43.567Z,-8.06
2019-01-19T06:49:50.446Z,-8.01
2019-01-19T06:52:57.366Z,-8.05
2019-01-19T06:56:04.529Z,-8.07
2019-01-19T06:59:17.386Z,-8.07
2019-01-19T07:02:20.108Z,-7.96
2019-01-19T07:05:27.040Z,-7.76
2019-01-19T07:08:33.935Z,-7.91
2019-01-19T07:11:41.376Z,-7.88
2019-01-19T07:14:48.260Z,-7.66
2019-01-19T07:17:55.217Z,-7.86
2019-01-19T07:21:02.119Z,-7.86
2019-01-19T07:24:09.051Z,-7.83
2019-01-19T07:27:17.117Z,-7.86
2019-01-19T07:30:24.053Z,-7.84
2019-01-19T07:33:31.052Z,-7.83
2019-01-19T07:36:38.016Z,-7.89
2019-01-19T07:39:44.911Z,-7.83
2019-01-19T07:42:56.791Z,-7.81
2019-01-19T07:46:05.133Z,-7.61
2019-01-19T07:49:14.661Z,-7.61
2019-01-19T07:52:21.569Z,-7.56
2019-01-19T07:55:28.472Z,-7.51
2019-01-19T07:58:36.585Z,-7.34
2019-01-19T08:01:43.582Z,-7.38
2019-01-19T08:04:50.490Z,-7.37
2019-01-19T08:07:57.446Z,-7.34
2019-01-19T08:11:04.473Z,-7.27
2019-01-19T08:14:12.841Z,-7.26
2019-01-19T08:17:19.733Z,-7.24
2019-01-19T08:20:26.724Z,-7.09
2019-01-19T08:23:35.321Z,-6.98
2019-01-19T08:26:42.604Z,-6.89
2019-01-19T08:29:49.977Z,-6.82
2019-01-19T08:32:57.156Z,-6.76
2019-01-19T08:36:04.854Z,-6.69
2019-01-19T08:39:12.449Z,-6.70
2019-01-19T08:42:36.573Z,-6.70
2019-01-19T08:45:45.265Z,-6.65
2019-01-19T08:48:52.634Z,-6.58
2019-01-19T08:51:59.871Z,-6.57
2019-01-19T08:55:23.558Z,-6.52
2019-01-19T08:58:33.072Z,-6.50
2019-01-19T09:01:55.073Z,-6.47
2019-01-19T09:05:05.311Z,-6.44
2019-01-19T09:08:15.595Z,-6.42
2019-01-19T09:11:23.784Z,-6.34
2019-01-19T09:14:31.061Z,-6.23
2019-01-19T09:17:45.538Z,-6.18
2019-01-19T09:24:44.209Z,-5.86
2019-01-19T09:27:51.118Z,-5.73
2019-01-19T09:30:58.119Z,-5.73
2019-01-19T09:34:05.428Z,-5.64
2019-01-19T09:37:12.555Z,-5.67
2019-01-19T09:40:20.028Z,-5.55
2019-01-19T09:43:27.204Z,-5.47
2019-01-19T09:46:34.114Z,-5.41
2019-01-19T09:49:41.862Z,-5.49
2019-01-19T09:52:48.775Z,-5.38
2019-01-19T09:55:55.848Z,-5.29
2019-01-19T09:59:02.757Z,-5.16
2019-01-19T10:02:12.508Z,-4.84
2019-01-19T10:05:22.104Z,-4.73
2019-01-19T10:08:29.020Z,-4.59
2019-01-19T10:11:36.189Z,-4.56
2019-01-19T10:14:43.185Z,-4.47
2019-01-19T10:17:50.166Z,-4.39
2019-01-19T10:20:57.597Z,-4.39
2019-01-19T10:24:04.670Z,-4.26
2019-01-19T10:27:13.490Z,-3.97
2019-01-19T10:30:24.569Z,-4.17
2019-01-19T10:33:32.702Z,-4.00
2019-01-19T10:36:39.878Z,-3.95
2019-01-19T10:39:47.228Z,-3.48
2019-01-19T10:42:54.207Z,-3.39
2019-01-19T10:46:03.860Z,-3.55
2019-01-19T10:49:15.089Z,-3.49
2019-01-19T10:52:23.158Z,-3.27
2019-01-19T10:55:33.154Z,-3.19
2019-01-19T10:58:42.040Z,-3.16
2019-01-19T11:01:50.665Z,-3.03
2019-01-19T11:05:00.299Z,-2.92
2019-01-19T11:08:12.280Z,-2.74
2019-01-19T11:11:21.171Z,-2.79
2019-01-19T11:14:29.955Z,-2.52
2019-01-19T11:17:37.699Z,-2.40
2019-01-19T11:20:44.628Z,-2.37
2019-01-19T11:23:51.719Z,-2.26
2019-01-19T11:26:58.757Z,-2.10
2019-01-19T11:30:06.887Z,-1.93
2019-01-19T11:33:14.384Z,-1.88
2019-01-19T11:36:23.823Z,-1.80
2019-01-19T11:39:31.085Z,-1.72
2019-01-19T11:42:38.012Z,-1.57
2019-01-19T11:45:46.747Z,-1.63
2019-01-19T11:48:54.362Z,-1.35
2019-01-19T11:52:01.266Z,-1.22
2019-01-19T11:55:11.182Z,-1.37
2019-01-19T11:58:19.423Z,-1.31
2019-01-19T12:01:26.421Z,-1.22
2019-01-19T12:04:33.295Z,-1.01
2019-01-19T12:07:41.561Z,-1.02
2019-01-19T12:10:48.599Z,-0.92
2019-01-19T12:13:56.384Z,-0.90
2019-01-19T12:17:03.263Z,-0.91
2019-01-19T12:20:19.877Z,-0.95
2019-01-19T12:23:26.795Z,-0.93
2019-01-19T12:26:33.847Z,-0.75
2019-01-19T12:29:40.734Z,-0.90
2019-01-19T12:32:47.705Z,-0.74
2019-01-19T12:35:54.718Z,-0.77
2019-01-19T12:39:01.658Z,-0.77
2019-01-19T12:42:09.806Z,-0.43
2019-01-19T12:45:27.986Z,-0.44
2019-01-19T12:48:34.895Z,-0.34
2019-01-19T12:51:42.397Z,-0.15
2019-01-19T12:54:49.531Z,-0.19
2019-01-19T12:57:56.616Z,-0.11
2019-01-19T13:01:03.959Z,0.07
2019-01-19T13:04:11.976Z,0.13
2019-01-19T13:07:19.240Z,-0.02
2019-01-19T13:10:40.713Z,0.14
2019-01-19T13:13:52.244Z,0.13
2019-01-19T13:17:49.608Z,0.32
2019-01-19T13:22:00.593Z,0.28
2019-01-19T13:25:49.034Z,0.15
2019-01-19T13:29:47.361Z,0.04
2019-01-19T13:33:55.325Z,0.25
2019-01-19T13:38:02.402Z,-0.03
2019-01-19T13:41:56.389Z,-0.01
2019-01-19T13:46:00.304Z,-0.22
2019-01-19T13:49:58.376Z,-0.32
2019-01-19T13:54:20.807Z,-0.32
2019-01-19T13:58:02.183Z,-0.40
2019-01-19T14:02:01.830Z,-0.49
2019-01-19T14:05:56.506Z,-0.47
2019-01-19T14:09:51.030Z,-0.80
2019-01-19T14:13:51.216Z,-0.80
2019-01-19T14:18:19.495Z,-0.88
2019-01-19T14:22:15.804Z,-0.69
2019-01-19T14:26:33.463Z,-0.89
2019-01-19T14:30:38.952Z,-0.54
2019-01-19T14:34:20.031Z,-0.56
2019-01-19T14:38:25.246Z,-0.63
2019-01-19T14:42:27.136Z,-0.72
2019-01-19T14:46:16.508Z,-0.93
2019-01-19T14:50:31.910Z,-1.50
2019-01-19T14:54:37.291Z,-1.71
2019-01-19T14:58:36.240Z,-1.66
2019-01-19T15:02:51.553Z,-2.29
2019-01-19T15:07:01.506Z,-2.00
2019-01-19T15:10:53.029Z,-2.09
2019-01-19T15:14:50.637Z,-2.65
2019-01-19T15:18:57.184Z,-2.33
2019-01-19T15:22:50.629Z,-2.71
2019-01-19T15:27:21.849Z,-2.58
2019-01-19T15:31:08.013Z,-2.31
2019-01-19T15:35:19.011Z,-2.36
2019-01-19T15:39:40.963Z,-2.61
2019-01-19T15:43:34.722Z,-2.87
2019-01-19T15:47:30.966Z,-3.07
2019-01-19T15:51:33.600Z,-3.27
2019-01-19T15:55:11.334Z,-3.12
2019-01-19T15:59:14.350Z,-3.13
2019-01-19T16:03:42.632Z,-3.44
2019-01-19T16:07:21.326Z,-3.46
2019-01-19T16:11:55.801Z,-3.70
2019-01-19T16:16:13.610Z,-3.77
2019-01-19T16:20:17.486Z,-4.31
2019-01-19T16:24:12.393Z,-4.34
2019-01-19T16:28:27.246Z,-4.61
2019-01-19T16:32:19.668Z,-3.97
2019-01-19T16:35:55.888Z,-3.80
2019-01-19T16:40:09.061Z,-3.82
2019-01-19T16:43:53.706Z,-3.77
2019-01-19T16:47:50.904Z,-4.00
2019-01-19T16:52:03.510Z,-3.96
2019-01-19T16:56:01.325Z,-3.94
2019-01-19T17:00:09.401Z,-4.05
2019-01-19T17:04:02.280Z,-4.35
2019-01-19T17:08:04.027Z,-4.14
2019-01-19T17:12:22.255Z,-4.06
2019-01-19T17:16:05.099Z,-4.10
2019-01-19T17:19:57.099Z,-4.15
2019-01-19T17:23:34.219Z,-4.33
2019-01-19T17:27:25.874Z,-4.35
2019-01-19T17:31:34.193Z,-4.45
2019-01-19T17:35:33.419Z,-4.45
2019-01-19T17:39:29.215Z,-4.46
2019-01-19T17:44:06.571Z,-4.46
2019-01-19T17:47:45.046Z,-4.47
2019-01-19T17:51:44.683Z,-4.63
2019-01-19T17:55:57.396Z,-4.53
2019-01-19T18:00:02.357Z,-4.66
2019-01-19T18:03:49.156Z,-4.71
2019-01-19T18:08:01.544Z,-4.88
2019-01-19T18:12:20.109Z,-4.94
2019-01-19T18:16:29.534Z,-4.84
2019-01-19T18:20:13.991Z,-4.92
2019-01-19T18:24:25.914Z,-5.71
2019-01-19T18:28:30.712Z,-5.30
2019-01-19T18:32:39.746Z,-5.12
2019-01-19T18:36:30.287Z,-5.04
2019-01-19T18:40:36.678Z,-5.13
2019-01-19T18:44:39.400Z,-5.12
2019-01-19T18:48:47.219Z,-5.16
2019-01-19T18:52:37.479Z,-5.37
2019-01-19T18:56:46.441Z,-5.49
2019-01-19T19:00:47.980Z,-5.41
2019-01-19T19:04:55.221Z,-5.60
2019-01-19T19:08:40.256Z,-5.50
2019-01-19T19:12:47.107Z,-5.95
2019-01-19T19:16:35.926Z,-5.48
2019-01-19T19:20:10.156Z,-6.16
2019-01-19T19:24:08.531Z,-5.63
2019-01-19T19:28:08.998Z,-5.97
2019-01-19T19:32:00.779Z,-5.95
2019-01-19T19:36:18.970Z,-5.87
2019-01-19T19:40:24.264Z,-5.75
2019-01-19T19:44:12.263Z,-5.74
2019-01-19T19:48:05.608Z,-5.70
2019-01-19T19:52:07.311Z,-5.57
2019-01-19T19:55:12.725Z,-5.55
2019-01-19T19:58:20.293Z,-5.47
2019-01-19T20:01:28.081Z,-5.36
2019-01-19T20:04:35.966Z,-5.35
2019-01-19T20:07:44.374Z,-5.43
2019-01-19T20:10:52.789Z,-5.38
2019-01-19T20:14:01.454Z,-5.52
2019-01-19T20:17:10.785Z,-5.41
2019-01-19T20:20:18.376Z,-5.40
2019-01-19T20:23:27.399Z,-5.46
2019-01-19T20:26:35.448Z,-5.49
2019-01-19T20:29:44.008Z,-5.50
2019-01-19T20:32:52.131Z,-5.52
2019-01-19T20:36:03.264Z,-5.39
2019-01-19T20:39:13.036Z,-5.43
2019-01-19T20:42:23.489Z,-5.43
2019-01-19T20:45:31.756Z,-5.39
2019-01-19T20:48:40.062Z,-5.53
2019-01-19T20:51:51.301Z,-5.80
2019-01-19T20:55:10.342Z,-5.52
2019-01-19T20:58:17.968Z,-5.56
2019-01-19T21:01:25.685Z,-5.75
2019-01-19T21:04:34.450Z,-5.64
2019-01-19T21:07:42.681Z,-5.68
2019-01-19T21:10:50.822Z,-5.78
2019-01-19T21:13:59.678Z,-5.62
2019-01-19T21:17:08.226Z,-5.65
2019-01-19T21:20:17.524Z,-5.91
2019-01-19T21:23:25.930Z,-5.81
2019-01-19T21:26:35.002Z,-5.90
2019-01-19T21:29:44.238Z,-5.92
2019-01-19T21:32:52.740Z,-5.88
2019-01-19T21:36:00.600Z,-5.97
2019-01-19T21:39:10.383Z,-5.98
2019-01-19T21:42:18.582Z,-6.20
2019-01-19T21:45:26.617Z,-6.39
2019-01-19T21:48:34.523Z,-6.24
2019-01-19T21:51:44.417Z,-6.24
2019-01-19T21:54:52.379Z,-6.19
2019-01-19T21:58:00.218Z,-6.46
2019-01-19T22:01:08.915Z,-6.42
2019-01-19T22:04:20.145Z,-7.00
2019-01-19T22:07:28.300Z,-6.55
2019-01-19T22:10:36.375Z,-6.59
2019-01-19T22:13:43.928Z,-6.67
2019-01-19T22:16:52.405Z,-6.62
2019-01-19T22:20:00.460Z,-6.65
2019-01-19T22:23:08.369Z,-6.63
2019-01-19T22:26:18.601Z,-6.64
2019-01-19T22:29:26.471Z,-6.73
2019-01-19T22:32:34.624Z,-6.76
2019-01-19T22:35:43.086Z,-7.21
2019-01-19T22:38:51.482Z,-7.11
2019-01-19T22:42:00.172Z,-7.09
2019-01-19T22:45:11.451Z,-7.25
2019-01-19T22:48:19.449Z,-7.69
2019-01-19T22:51:27.955Z,-7.48
2019-01-19T22:54:36.230Z,-7.52
2019-01-19T22:57:44.522Z,-8.15
2019-01-19T23:01:39.646Z,-7.64
2019-01-19T23:04:48.003Z,-7.52
2019-01-19T23:07:56.036Z,-7.15
2019-01-19T23:11:03.271Z,-7.15
2019-01-19T23:14:13.029Z,-7.24
2019-01-19T23:17:20.644Z,-7.73
2019-01-19T23:20:28.608Z,-8.00
2019-01-19T23:23:37.642Z,-7.35
2019-01-19T23:26:46.298Z,-7.25
2019-01-19T23:29:54.205Z,-7.27
2019-01-19T23:33:03.436Z,-7.34
2019-01-19T23:36:11.358Z,-7.91
2019-01-19T23:39:19.396Z,-8.09
2019-01-19T23:42:28.635Z,-7.75
2019-01-19T23:45:36.381Z,-7.58
2019-01-19T23:48:44.662Z,-7.33
2019-01-19T23:51:52.663Z,-7.33
2019-01-19T23:55:00.713Z,-7.40
2019-01-19T23:58:08.665Z,-7.42
